Wednesday, June 20, 2018, 5:08 PM EDT
Back to Local

KUCP, New Castle, New Castle Municipal Airport

Location: Edinburg, PA, United States Lat: 41.025
Local Time: 5:08 PM EDT (21:08 GMT) Lon: -80.413
Time Zone: US/Eastern Elev: 1072 ft

Show me the last for .
Show Decoded

2018-06-20 16:21 METAR KUCP 202021Z AUTO 02005KT 10SM BKN018 OVC060 24/22 A2983 RMK AO2 =
2018-06-20 15:56 METAR KUCP 201956Z AUTO 01003KT 10SM FEW018 24/22 A2983 RMK AO2 SLP109 T02440217
                 =
2018-06-20 14:56 METAR KUCP 201856Z AUTO VRB03KT 10SM FEW015 23/21 A2984 RMK AO2 SLP114 T02330206
                 =
2018-06-20 13:56 METAR KUCP 201756Z AUTO 03004KT 10SM OVC017 22/20 A2987 RMK AO2 SLP123 60003
                 T02220200 10222 20189 58004 =
2018-06-20 12:56 METAR KUCP 201656Z AUTO 03006KT 10SM FEW010 OVC017 21/20 A2988 RMK AO2 LTG DSNT
                 SE SLP126 T02110200 =
2018-06-20 11:56 METAR KUCP 201556Z AUTO 03009KT 10SM OVC017 19/19 A2989 RMK AO2 RAB01E55 SLP132
                 P0002 T01940194 =
2018-06-20 10:56 METAR KUCP 201456Z AUTO 03006KT 10SM BKN022 BKN027 OVC050 21/21 A2988 RMK AO2
                 SLP127 60001 T02110211 58010 =
2018-06-20 09:56 METAR KUCP 201356Z AUTO 00000KT 10SM SCT028 OVC060 21/21 A2989 RMK AO2
                 RAB1258E48 SLP131 P0001 T02060206 =
2018-06-20 08:56 METAR KUCP 201256Z AUTO 00000KT 9SM OVC036 20/19 A2990 RMK AO2 SLP134 T02000189
                 =
2018-06-20 07:56 METAR KUCP 201156Z AUTO 00000KT 10SM OVC036 19/19 A2991 RMK AO2 SLP137 60000
                 70015 T01890189 10189 20167 55000 =
2018-06-20 06:56 METAR KUCP 201056Z AUTO 00000KT 10SM OVC040 18/18 A2990 RMK AO2 SLP134 T01830183
                 =
2018-06-20 05:56 METAR KUCP 200956Z AUTO 00000KT 10SM BKN050 OVC060 18/18 A2992 RMK AO2 RAB15E53
                 SLP138 P0000 T01830183 =
2018-06-20 04:56 METAR KUCP 200856Z AUTO 00000KT 10SM BKN060 18/18 A2991 RMK AO2 RAB39E54 SLP137
                 P0000 60000 T01830178 58008 TSNO =
2018-06-20 03:56 METAR KUCP 200756Z AUTO 00000KT 10SM OVC065 18/18 A2992 RMK AO2 SLP140 T01780178
                 =
2018-06-20 02:56 METAR KUCP 200656Z AUTO 00000KT 10SM SCT060 OVC075 18/18 A2994 RMK AO2 SLP145
                 T01780178 =
2018-06-20 01:56 METAR KUCP 200556Z AUTO 00000KT 10SM CLR 17/17 A2994 RMK AO2 SLP146 T01720172
                 10239 20167 56006 =
2018-06-20 00:56 METAR KUCP 200456Z AUTO 00000KT 10SM CLR 18/18 A2994 RMK AO2 SLP146 T01780178
                 402670172 =
2018-06-19 23:56 METAR KUCP 200356Z AUTO 00000KT 10SM CLR 18/18 A2995 RMK AO2 SLP149 T01830183 =
2018-06-19 22:56 METAR KUCP 200256Z AUTO 03003KT 10SM FEW110 19/18 A2995 RMK AO2 SLP152 T01940183
                 50004 =
2018-06-19 21:56 METAR KUCP 200156Z AUTO 00000KT 10SM CLR 21/18 A2996 RMK AO2 SLP154 T02060183 =
2018-06-19 20:56 METAR KUCP 200056Z AUTO 35004KT 10SM CLR 22/19 A2995 RMK AO2 SLP150 T02220189 =
2018-06-19 19:56 METAR KUCP 192356Z AUTO 01004KT 10SM CLR 24/21 A2994 RMK AO2 SLP147 T02390206
                 10267 20239 56005 =
2018-06-19 18:56 METAR KUCP 192256Z AUTO 32003KT 10SM SCT110 26/19 A2995 RMK AO2 SLP147 T02560189
                 =
2018-06-19 17:56 METAR KUCP 192156Z AUTO 36005KT 10SM SCT120 26/18 A2995 RMK AO2 SLP147 T02560178
                 =

Support USWX by starting your Amazon purchase here.